sensor_id;sensor_type;location;lat;lon;timestamp;pressure;altitude;pressure_sealevel;temperature;humidity
3082;BME280;1551;51.046;7.010;2023-06-10T00:01:50;100695.81;;;22.90;52.88
3082;BME280;1551;51.046;7.010;2023-06-10T00:04:39;100693.28;;;22.89;52.90
3082;BME280;1551;51.046;7.010;2023-06-10T00:07:28;100690.97;;;22.84;53.03
3082;BME280;1551;51.046;7.010;2023-06-10T00:10:17;100680.63;;;22.83;52.95
3082;BME280;1551;51.046;7.010;2023-06-10T00:13:06;100683.41;;;22.80;53.23
3082;BME280;1551;51.046;7.010;2023-06-10T00:15:59;100692.38;;;22.76;53.30
3082;BME280;1551;51.046;7.010;2023-06-10T00:18:49;100693.38;;;22.73;53.42
3082;BME280;1551;51.046;7.010;2023-06-10T00:21:40;100687.59;;;22.68;53.53
3082;BME280;1551;51.046;7.010;2023-06-10T00:24:29;100685.91;;;22.67;53.46
3082;BME280;1551;51.046;7.010;2023-06-10T00:27:18;100686.19;;;22.63;53.76
3082;BME280;1551;51.046;7.010;2023-06-10T00:30:07;100681.22;;;22.58;53.93
3082;BME280;1551;51.046;7.010;2023-06-10T00:32:56;100679.72;;;22.54;53.90
3082;BME280;1551;51.046;7.010;2023-06-10T00:35:46;100686.53;;;22.56;53.71
3082;BME280;1551;51.046;7.010;2023-06-10T00:38:35;100687.66;;;22.52;53.84
3082;BME280;1551;51.046;7.010;2023-06-10T00:41:25;100694.63;;;22.52;53.90
3082;BME280;1551;51.046;7.010;2023-06-10T00:44:17;100692.13;;;22.50;53.86
3082;BME280;1551;51.046;7.010;2023-06-10T00:47:07;100698.53;;;22.45;53.88
3082;BME280;1551;51.046;7.010;2023-06-10T00:49:56;100691.59;;;22.30;54.29
3082;BME280;1551;51.046;7.010;2023-06-10T00:52:46;100702.22;;;22.27;54.36
3082;BME280;1551;51.046;7.010;2023-06-10T00:55:37;100700.63;;;22.24;54.52
3082;BME280;1551;51.046;7.010;2023-06-10T00:58:26;100699.69;;;22.25;54.65
3082;BME280;1551;51.046;7.010;2023-06-10T01:01:15;100706.75;;;22.23;54.74
3082;BME280;1551;51.046;7.010;2023-06-10T01:04:04;100697.72;;;22.15;55.05
3082;BME280;1551;51.046;7.010;2023-06-10T01:07:20;100698.84;;;22.11;54.87
3082;BME280;1551;51.046;7.010;2023-06-10T01:10:20;100701.59;;;22.08;55.28
3082;BME280;1551;51.046;7.010;2023-06-10T01:13:13;100702.88;;;22.01;55.66
3082;BME280;1551;51.046;7.010;2023-06-10T01:16:02;100704.25;;;21.92;56.09
3082;BME280;1551;51.046;7.010;2023-06-10T01:18:52;100706.50;;;21.82;56.62
3082;BME280;1551;51.046;7.010;2023-06-10T01:21:41;100706.94;;;21.75;56.98
3082;BME280;1551;51.046;7.010;2023-06-10T01:24:31;100706.19;;;21.73;57.08
3082;BME280;1551;51.046;7.010;2023-06-10T01:27:24;100706.75;;;21.62;58.05
3082;BME280;1551;51.046;7.010;2023-06-10T01:30:19;100705.41;;;21.55;58.16
3082;BME280;1551;51.046;7.010;2023-06-10T01:33:13;100701.63;;;21.45;59.41
3082;BME280;1551;51.046;7.010;2023-06-10T01:36:04;100703.47;;;21.28;60.26
3082;BME280;1551;51.046;7.010;2023-06-10T01:38:55;100702.63;;;21.27;60.76
3082;BME280;1551;51.046;7.010;2023-06-10T01:41:45;100699.53;;;21.20;61.34
3082;BME280;1551;51.046;7.010;2023-06-10T01:44:34;100698.16;;;21.13;62.48
3082;BME280;1551;51.046;7.010;2023-06-10T01:47:23;100697.88;;;21.02;62.78
3082;BME280;1551;51.046;7.010;2023-06-10T01:50:12;100697.50;;;20.93;63.29
3082;BME280;1551;51.046;7.010;2023-06-10T01:53:01;100707.06;;;20.92;63.98
3082;BME280;1551;51.046;7.010;2023-06-10T01:55:50;100698.38;;;20.93;64.55
3082;BME280;1551;51.046;7.010;2023-06-10T01:58:40;100699.59;;;20.86;64.44
3082;BME280;1551;51.046;7.010;2023-06-10T02:01:29;100707.72;;;20.80;63.93
3082;BME280;1551;51.046;7.010;2023-06-10T02:04:18;100707.81;;;20.79;63.89
3082;BME280;1551;51.046;7.010;2023-06-10T02:07:07;100703.75;;;20.73;64.85
3082;BME280;1551;51.046;7.010;2023-06-10T02:09:56;100706.66;;;20.67;65.41
3082;BME280;1551;51.046;7.010;2023-06-10T02:12:45;100709.50;;;20.63;65.43
3082;BME280;1551;51.046;7.010;2023-06-10T02:15:34;100713.78;;;20.64;65.45
3082;BME280;1551;51.046;7.010;2023-06-10T02:18:23;100709.19;;;20.51;65.79
3082;BME280;1551;51.046;7.010;2023-06-10T02:21:12;100717.09;;;20.50;65.60
3082;BME280;1551;51.046;7.010;2023-06-10T02:24:01;100716.66;;;20.42;66.51
3082;BME280;1551;51.046;7.010;2023-06-10T02:26:50;100723.06;;;20.35;67.18
3082;BME280;1551;51.046;7.010;2023-06-10T02:29:40;100723.97;;;20.34;67.94
3082;BME280;1551;51.046;7.010;2023-06-10T02:32:30;100721.50;;;20.31;69.47
3082;BME280;1551;51.046;7.010;2023-06-10T02:35:20;100728.06;;;20.21;70.17
3082;BME280;1551;51.046;7.010;2023-06-10T02:38:10;100728.44;;;20.13;70.81
3082;BME280;1551;51.046;7.010;2023-06-10T02:40:59;100728.66;;;20.09;71.32
3082;BME280;1551;51.046;7.010;2023-06-10T02:43:48;100727.19;;;20.03;71.38
3082;BME280;1551;51.046;7.010;2023-06-10T02:46:37;100730.91;;;19.98;72.43
3082;BME280;1551;51.046;7.010;2023-06-10T02:49:28;100727.41;;;19.99;73.14
3082;BME280;1551;51.046;7.010;2023-06-10T02:52:18;100728.19;;;20.01;73.66
3082;BME280;1551;51.046;7.010;2023-06-10T02:55:07;100726.66;;;19.97;74.41
3082;BME280;1551;51.046;7.010;2023-06-10T02:57:56;100728.63;;;19.92;75.63
3082;BME280;1551;51.046;7.010;2023-06-10T03:00:46;100722.94;;;19.83;76.41
3082;BME280;1551;51.046;7.010;2023-06-10T03:03:36;100729.22;;;19.79;77.11
3082;BME280;1551;51.046;7.010;2023-06-10T03:06:32;100728.31;;;19.80;77.19
3082;BME280;1551;51.046;7.010;2023-06-10T03:09:34;100723.38;;;19.74;77.65
3082;BME280;1551;51.046;7.010;2023-06-10T03:12:25;100730.41;;;19.72;77.79
3082;BME280;1551;51.046;7.010;2023-06-10T03:15:14;100724.59;;;19.67;78.02
3082;BME280;1551;51.046;7.010;2023-06-10T03:18:04;100729.78;;;19.67;77.29
3082;BME280;1551;51.046;7.010;2023-06-10T03:20:54;100718.63;;;19.65;77.23
3082;BME280;1551;51.046;7.010;2023-06-10T03:23:45;100725.94;;;19.57;77.24
3082;BME280;1551;51.046;7.010;2023-06-10T03:26:34;100728.69;;;19.54;77.18
3082;BME280;1551;51.046;7.010;2023-06-10T03:29:24;100735.63;;;19.54;76.81
3082;BME280;1551;51.046;7.010;2023-06-10T03:32:13;100735.97;;;19.46;76.94
3082;BME280;1551;51.046;7.010;2023-06-10T03:35:05;100738.28;;;19.52;76.46
3082;BME280;1551;51.046;7.010;2023-06-10T03:37:55;100739.97;;;19.53;75.91
3082;BME280;1551;51.046;7.010;2023-06-10T03:40:44;100741.03;;;19.49;75.35
3082;BME280;1551;51.046;7.010;2023-06-10T03:43:33;100746.34;;;19.46;74.39
3082;BME280;1551;51.046;7.010;2023-06-10T03:46:23;100751.16;;;19.35;74.66
3082;BME280;1551;51.046;7.010;2023-06-10T03:49:13;100746.56;;;19.42;74.45
3082;BME280;1551;51.046;7.010;2023-06-10T03:52:04;100741.38;;;19.42;74.12
3082;BME280;1551;51.046;7.010;2023-06-10T03:54:53;100744.69;;;19.45;74.30
3082;BME280;1551;51.046;7.010;2023-06-10T03:57:42;100741.38;;;19.42;74.12
3082;BME280;1551;51.046;7.010;2023-06-10T04:00:31;100742.00;;;19.47;73.73
3082;BME280;1551;51.046;7.010;2023-06-10T04:03:29;100744.91;;;19.41;73.96
3082;BME280;1551;51.046;7.010;2023-06-10T04:06:18;100741.53;;;19.39;73.61
3082;BME280;1551;51.046;7.010;2023-06-10T04:09:07;100743.19;;;19.40;73.59
3082;BME280;1551;51.046;7.010;2023-06-10T04:11:57;100748.94;;;19.46;73.64
3082;BME280;1551;51.046;7.010;2023-06-10T04:14:46;100751.19;;;19.54;73.56
3082;BME280;1551;51.046;7.010;2023-06-10T04:17:35;100749.31;;;19.57;73.75
3082;BME280;1551;51.046;7.010;2023-06-10T04:20:25;100746.56;;;19.60;73.27
3082;BME280;1551;51.046;7.010;2023-06-10T04:23:15;100754.22;;;19.63;73.33
3082;BME280;1551;51.046;7.010;2023-06-10T04:26:07;100761.91;;;19.65;73.60
3082;BME280;1551;51.046;7.010;2023-06-10T04:28:56;100763.19;;;19.56;73.60
3082;BME280;1551;51.046;7.010;2023-06-10T04:31:46;100771.72;;;19.60;73.66
3082;BME280;1551;51.046;7.010;2023-06-10T04:34:36;100773.88;;;19.69;73.96
3082;BME280;1551;51.046;7.010;2023-06-10T04:37:28;100774.50;;;19.74;73.58
3082;BME280;1551;51.046;7.010;2023-06-10T04:40:19;100772.47;;;19.80;73.21
3082;BME280;1551;51.046;7.010;2023-06-10T04:43:09;100770.91;;;19.95;72.54
3082;BME280;1551;51.046;7.010;2023-06-10T04:46:00;100761.19;;;19.99;72.01
3082;BME280;1551;51.046;7.010;2023-06-10T04:48:51;100768.31;;;20.12;71.93
3082;BME280;1551;51.046;7.010;2023-06-10T04:51:40;100768.69;;;20.23;71.80
3082;BME280;1551;51.046;7.010;2023-06-10T04:54:30;100764.72;;;20.33;71.53
3082;BME280;1551;51.046;7.010;2023-06-10T04:57:21;100760.13;;;20.38;71.14
3082;BME280;1551;51.046;7.010;2023-06-10T05:00:11;100745.63;;;20.34;70.91
3082;BME280;1551;51.046;7.010;2023-06-10T05:03:00;100774.59;;;20.61;70.40
3082;BME280;1551;51.046;7.010;2023-06-10T05:05:48;100781.03;;;20.71;70.03
3082;BME280;1551;51.046;7.010;2023-06-10T05:08:37;100777.19;;;20.78;69.86
3082;BME280;1551;51.046;7.010;2023-06-10T05:11:26;100775.72;;;20.90;68.98
3082;BME280;1551;51.046;7.010;2023-06-10T05:14:15;100774.34;;;21.00;68.78
3082;BME280;1551;51.046;7.010;2023-06-10T05:17:05;100776.59;;;21.07;68.04
3082;BME280;1551;51.046;7.010;2023-06-10T05:19:55;100782.91;;;21.19;67.76
3082;BME280;1551;51.046;7.010;2023-06-10T05:22:44;100777.72;;;21.19;66.82
3082;BME280;1551;51.046;7.010;2023-06-10T05:25:33;100778.50;;;21.37;66.47
3082;BME280;1551;51.046;7.010;2023-06-10T05:28:22;100775.34;;;21.47;65.71
3082;BME280;1551;51.046;7.010;2023-06-10T05:31:11;100773.06;;;21.57;64.96
3082;BME280;1551;51.046;7.010;2023-06-10T05:34:00;100779.03;;;21.74;64.58
3082;BME280;1551;51.046;7.010;2023-06-10T05:36:49;100787.13;;;21.85;63.88
3082;BME280;1551;51.046;7.010;2023-06-10T05:39:38;100784.59;;;22.00;63.71
3082;BME280;1551;51.046;7.010;2023-06-10T05:42:28;100784.88;;;22.11;63.63
3082;BME280;1551;51.046;7.010;2023-06-10T05:45:17;100784.94;;;22.25;62.63
3082;BME280;1551;51.046;7.010;2023-06-10T05:48:06;100785.81;;;22.39;61.37
3082;BME280;1551;51.046;7.010;2023-06-10T05:50:55;100782.50;;;22.51;60.32
3082;BME280;1551;51.046;7.010;2023-06-10T05:53:44;100793.16;;;22.63;59.05
3082;BME280;1551;51.046;7.010;2023-06-10T05:56:34;100785.09;;;22.81;58.39
3082;BME280;1551;51.046;7.010;2023-06-10T05:59:23;100785.91;;;22.97;56.60
3082;BME280;1551;51.046;7.010;2023-06-10T06:02:12;100789.16;;;23.15;54.40
3082;BME280;1551;51.046;7.010;2023-06-10T06:05:01;100790.00;;;23.30;54.23
3082;BME280;1551;51.046;7.010;2023-06-10T06:07:50;100795.56;;;23.39;53.33
3082;BME280;1551;51.046;7.010;2023-06-10T06:10:39;100792.38;;;23.48;52.28
3082;BME280;1551;51.046;7.010;2023-06-10T06:13:28;100790.59;;;23.63;52.80
3082;BME280;1551;51.046;7.010;2023-06-10T06:16:17;100791.47;;;23.76;50.97
3082;BME280;1551;51.046;7.010;2023-06-10T06:19:07;100778.97;;;23.81;49.74
3082;BME280;1551;51.046;7.010;2023-06-10T06:21:56;100798.06;;;23.96;48.60
3082;BME280;1551;51.046;7.010;2023-06-10T06:24:45;100791.56;;;23.88;48.09
3082;BME280;1551;51.046;7.010;2023-06-10T06:27:34;100794.03;;;24.04;47.49
3082;BME280;1551;51.046;7.010;2023-06-10T06:30:22;100789.50;;;24.20;47.49
3082;BME280;1551;51.046;7.010;2023-06-10T06:33:12;100801.13;;;24.43;47.89
3082;BME280;1551;51.046;7.010;2023-06-10T06:36:01;100805.00;;;24.50;47.32
3082;BME280;1551;51.046;7.010;2023-06-10T06:38:50;100798.94;;;24.62;47.53
3082;BME280;1551;51.046;7.010;2023-06-10T06:41:40;100798.22;;;24.73;47.50
3082;BME280;1551;51.046;7.010;2023-06-10T06:44:29;100806.66;;;24.90;48.21
3082;BME280;1551;51.046;7.010;2023-06-10T06:47:18;100802.47;;;25.00;47.43
3082;BME280;1551;51.046;7.010;2023-06-10T06:50:09;100800.59;;;25.15;46.00
3082;BME280;1551;51.046;7.010;2023-06-10T06:52:58;100807.91;;;25.35;47.52
3082;BME280;1551;51.046;7.010;2023-06-10T06:55:47;100817.97;;;25.54;45.07
3082;BME280;1551;51.046;7.010;2023-06-10T06:58:36;100810.38;;;25.74;44.80
3082;BME280;1551;51.046;7.010;2023-06-10T07:01:25;100817.75;;;26.06;43.70
3082;BME280;1551;51.046;7.010;2023-06-10T07:04:15;100816.50;;;26.11;44.08
3082;BME280;1551;51.046;7.010;2023-06-10T07:07:07;100815.88;;;26.31;44.61
3082;BME280;1551;51.046;7.010;2023-06-10T07:09:57;100815.28;;;26.63;44.62
3082;BME280;1551;51.046;7.010;2023-06-10T07:12:46;100816.97;;;27.09;43.23
3082;BME280;1551;51.046;7.010;2023-06-10T07:15:35;100811.88;;;27.41;43.17
3082;BME280;1551;51.046;7.010;2023-06-10T07:18:24;100803.84;;;27.65;42.39
3082;BME280;1551;51.046;7.010;2023-06-10T07:21:13;100816.09;;;27.98;41.60
3082;BME280;1551;51.046;7.010;2023-06-10T07:24:02;100817.31;;;28.05;42.37
3082;BME280;1551;51.046;7.010;2023-06-10T07:26:51;100814.22;;;28.11;40.35
3082;BME280;1551;51.046;7.010;2023-06-10T07:29:40;100818.91;;;28.28;39.31
3082;BME280;1551;51.046;7.010;2023-06-10T07:32:28;100818.88;;;28.07;40.18
3082;BME280;1551;51.046;7.010;2023-06-10T07:35:17;100811.00;;;28.39;40.56
3082;BME280;1551;51.046;7.010;2023-06-10T07:38:06;100814.78;;;28.78;39.97
3082;BME280;1551;51.046;7.010;2023-06-10T07:40:55;100810.25;;;29.10;38.29
3082;BME280;1551;51.046;7.010;2023-06-10T07:43:44;100810.66;;;29.36;38.20
3082;BME280;1551;51.046;7.010;2023-06-10T07:46:34;100813.56;;;29.63;38.41
3082;BME280;1551;51.046;7.010;2023-06-10T07:49:23;100783.56;;;29.64;37.34
3082;BME280;1551;51.046;7.010;2023-06-10T07:52:12;100814.78;;;29.89;37.02
3082;BME280;1551;51.046;7.010;2023-06-10T07:55:00;100810.81;;;29.74;37.28
3082;BME280;1551;51.046;7.010;2023-06-10T07:57:49;100812.56;;;30.04;37.42
3082;BME280;1551;51.046;7.010;2023-06-10T08:00:38;100809.41;;;30.19;37.95
3082;BME280;1551;51.046;7.010;2023-06-10T08:03:27;100812.88;;;30.48;35.94
3082;BME280;1551;51.046;7.010;2023-06-10T08:06:16;100818.16;;;30.48;36.63
3082;BME280;1551;51.046;7.010;2023-06-10T08:09:08;100808.59;;;30.38;35.77
3082;BME280;1551;51.046;7.010;2023-06-10T08:11:57;100810.13;;;30.40;36.15
3082;BME280;1551;51.046;7.010;2023-06-10T08:14:46;100810.66;;;30.63;36.09
3082;BME280;1551;51.046;7.010;2023-06-10T08:17:35;100818.41;;;30.93;35.22
3082;BME280;1551;51.046;7.010;2023-06-10T08:20:24;100819.38;;;31.02;34.77
3082;BME280;1551;51.046;7.010;2023-06-10T08:23:14;100805.03;;;31.41;33.63
3082;BME280;1551;51.046;7.010;2023-06-10T08:26:03;100820.78;;;31.06;34.38
3082;BME280;1551;51.046;7.010;2023-06-10T08:28:52;100815.13;;;31.18;34.62
3082;BME280;1551;51.046;7.010;2023-06-10T08:31:42;100815.34;;;31.44;34.53
3082;BME280;1551;51.046;7.010;2023-06-10T08:34:34;100810.91;;;31.72;34.52
3082;BME280;1551;51.046;7.010;2023-06-10T08:37:26;100824.75;;;32.11;33.63
3082;BME280;1551;51.046;7.010;2023-06-10T08:40:15;100810.44;;;32.39;33.75
3082;BME280;1551;51.046;7.010;2023-06-10T08:43:11;100819.09;;;32.23;33.39
3082;BME280;1551;51.046;7.010;2023-06-10T08:46:08;100812.19;;;32.13;33.90
3082;BME280;1551;51.046;7.010;2023-06-10T08:49:02;100809.56;;;32.30;33.69
3082;BME280;1551;51.046;7.010;2023-06-10T08:51:58;100806.97;;;32.38;33.44
3082;BME280;1551;51.046;7.010;2023-06-10T08:55:03;100813.75;;;32.76;32.82
3082;BME280;1551;51.046;7.010;2023-06-10T08:57:53;100816.88;;;32.97;32.63
3082;BME280;1551;51.046;7.010;2023-06-10T09:00:42;100816.34;;;33.11;32.73
3082;BME280;1551;51.046;7.010;2023-06-10T09:03:31;100810.84;;;33.39;32.77
3082;BME280;1551;51.046;7.010;2023-06-10T09:06:22;100810.69;;;33.40;32.03
3082;BME280;1551;51.046;7.010;2023-06-10T09:09:12;100814.84;;;33.51;31.21
3082;BME280;1551;51.046;7.010;2023-06-10T09:12:02;100807.06;;;33.49;31.22
3082;BME280;1551;51.046;7.010;2023-06-10T09:14:51;100807.13;;;33.23;30.96
3082;BME280;1551;51.046;7.010;2023-06-10T09:17:41;100806.56;;;33.46;30.56
3082;BME280;1551;51.046;7.010;2023-06-10T09:20:29;100800.34;;;33.63;30.62
3082;BME280;1551;51.046;7.010;2023-06-10T09:23:18;100802.03;;;33.38;31.23
3082;BME280;1551;51.046;7.010;2023-06-10T09:26:10;100804.41;;;33.83;30.47
3082;BME280;1551;51.046;7.010;2023-06-10T09:29:04;100805.97;;;34.26;31.12
3082;BME280;1551;51.046;7.010;2023-06-10T09:31:54;100804.84;;;34.69;30.19
3082;BME280;1551;51.046;7.010;2023-06-10T09:34:43;100806.47;;;34.13;29.75
3082;BME280;1551;51.046;7.010;2023-06-10T09:37:32;100796.09;;;34.02;30.17
3082;BME280;1551;51.046;7.010;2023-06-10T09:40:21;100794.94;;;33.80;30.05
3082;BME280;1551;51.046;7.010;2023-06-10T09:43:10;100792.78;;;33.92;29.44
3082;BME280;1551;51.046;7.010;2023-06-10T09:46:01;100802.81;;;34.14;29.36
3082;BME280;1551;51.046;7.010;2023-06-10T09:48:50;100794.50;;;34.17;28.91
3082;BME280;1551;51.046;7.010;2023-06-10T09:51:53;100791.19;;;34.31;28.71
3082;BME280;1551;51.046;7.010;2023-06-10T09:54:44;100787.69;;;34.07;29.29
3082;BME280;1551;51.046;7.010;2023-06-10T09:57:33;100794.16;;;34.12;29.39
3082;BME280;1551;51.046;7.010;2023-06-10T10:00:22;100796.69;;;34.62;28.55
3082;BME280;1551;51.046;7.010;2023-06-10T10:03:22;100790.31;;;35.03;28.28
3082;BME280;1551;51.046;7.010;2023-06-10T10:06:12;100790.38;;;35.34;28.01
3082;BME280;1551;51.046;7.010;2023-06-10T10:09:01;100787.66;;;35.81;27.80
3082;BME280;1551;51.046;7.010;2023-06-10T10:11:53;100783.19;;;35.51;25.86
3082;BME280;1551;51.046;7.010;2023-06-10T10:14:46;100790.50;;;35.02;27.96
3082;BME280;1551;51.046;7.010;2023-06-10T10:17:58;100784.88;;;34.08;28.27
3082;BME280;1551;51.046;7.010;2023-06-10T10:20:50;100784.25;;;33.64;27.49
3082;BME280;1551;51.046;7.010;2023-06-10T10:24:02;100778.75;;;33.58;27.69
3082;BME280;1551;51.046;7.010;2023-06-10T10:26:56;100783.72;;;33.19;27.91
3082;BME280;1551;51.046;7.010;2023-06-10T10:29:48;100786.31;;;33.11;28.62
3082;BME280;1551;51.046;7.010;2023-06-10T10:32:58;100780.59;;;32.98;26.56
3082;BME280;1551;51.046;7.010;2023-06-10T10:35:53;100781.13;;;33.01;26.11
3082;BME280;1551;51.046;7.010;2023-06-10T10:38:42;100776.97;;;33.66;25.51
3082;BME280;1551;51.046;7.010;2023-06-10T10:41:32;100779.00;;;33.39;25.82
3082;BME280;1551;51.046;7.010;2023-06-10T10:44:22;100772.13;;;33.28;25.76
3082;BME280;1551;51.046;7.010;2023-06-10T10:47:12;100769.72;;;34.49;25.31
3082;BME280;1551;51.046;7.010;2023-06-10T10:50:12;100777.69;;;35.44;26.44
3082;BME280;1551;51.046;7.010;2023-06-10T10:53:03;100770.16;;;35.86;22.53
3082;BME280;1551;51.046;7.010;2023-06-10T10:56:06;100768.88;;;36.28;23.28
3082;BME280;1551;51.046;7.010;2023-06-10T10:59:06;100772.81;;;35.86;23.26
3082;BME280;1551;51.046;7.010;2023-06-10T11:01:56;100768.72;;;35.76;23.30
3082;BME280;1551;51.046;7.010;2023-06-10T11:04:46;100758.50;;;35.57;23.05
3082;BME280;1551;51.046;7.010;2023-06-10T11:07:37;100772.03;;;35.00;24.26
3082;BME280;1551;51.046;7.010;2023-06-10T11:10:34;100763.28;;;34.43;24.42
3082;BME280;1551;51.046;7.010;2023-06-10T11:13:25;100767.72;;;35.07;23.94
3082;BME280;1551;51.046;7.010;2023-06-10T11:16:19;100761.56;;;35.07;23.81
3082;BME280;1551;51.046;7.010;2023-06-10T11:19:09;100770.09;;;34.54;24.00
3082;BME280;1551;51.046;7.010;2023-06-10T11:21:59;100763.94;;;34.21;25.16
3082;BME280;1551;51.046;7.010;2023-06-10T11:24:49;100757.72;;;33.72;25.91
3082;BME280;1551;51.046;7.010;2023-06-10T11:27:39;100750.94;;;33.36;26.15
3082;BME280;1551;51.046;7.010;2023-06-10T11:30:34;100755.44;;;33.02;26.46
3082;BME280;1551;51.046;7.010;2023-06-10T11:33:24;100753.97;;;32.82;27.44
3082;BME280;1551;51.046;7.010;2023-06-10T11:36:14;100757.09;;;32.51;27.56
3082;BME280;1551;51.046;7.010;2023-06-10T11:39:04;100752.97;;;32.57;28.16
3082;BME280;1551;51.046;7.010;2023-06-10T11:41:54;100756.16;;;32.61;28.32
3082;BME280;1551;51.046;7.010;2023-06-10T11:44:54;100757.00;;;32.61;28.13
3082;BME280;1551;51.046;7.010;2023-06-10T11:47:56;100750.00;;;32.60;28.46
3082;BME280;1551;51.046;7.010;2023-06-10T11:50:45;100757.28;;;32.58;28.29
3082;BME280;1551;51.046;7.010;2023-06-10T11:53:34;100754.47;;;32.59;29.39
3082;BME280;1551;51.046;7.010;2023-06-10T11:56:28;100748.03;;;32.62;28.23
3082;BME280;1551;51.046;7.010;2023-06-10T11:59:18;100752.41;;;32.71;28.02
3082;BME280;1551;51.046;7.010;2023-06-10T12:02:14;100744.94;;;33.34;28.79
3082;BME280;1551;51.046;7.010;2023-06-10T12:05:14;100755.78;;;34.63;25.77
3082;BME280;1551;51.046;7.010;2023-06-10T12:08:10;100744.84;;;35.60;25.71
3082;BME280;1551;51.046;7.010;2023-06-10T12:10:59;100740.78;;;35.95;24.21
3082;BME280;1551;51.046;7.010;2023-06-10T12:13:49;100745.22;;;36.25;24.55
3082;BME280;1551;51.046;7.010;2023-06-10T12:16:39;100749.31;;;36.73;23.43
3082;BME280;1551;51.046;7.010;2023-06-10T12:19:28;100738.00;;;37.00;22.73
3082;BME280;1551;51.046;7.010;2023-06-10T12:22:17;100733.75;;;37.35;22.39
3082;BME280;1551;51.046;7.010;2023-06-10T12:25:08;100728.53;;;36.31;24.17
3082;BME280;1551;51.046;7.010;2023-06-10T12:27:58;100726.56;;;36.77;23.10
3082;BME280;1551;51.046;7.010;2023-06-10T12:30:48;100725.47;;;36.86;23.13
3082;BME280;1551;51.046;7.010;2023-06-10T12:33:37;100728.72;;;36.44;23.93
3082;BME280;1551;51.046;7.010;2023-06-10T12:36:26;100733.91;;;36.08;25.11
3082;BME280;1551;51.046;7.010;2023-06-10T12:39:15;100733.69;;;35.87;25.92
3082;BME280;1551;51.046;7.010;2023-06-10T12:42:04;100725.41;;;35.12;27.72
3082;BME280;1551;51.046;7.010;2023-06-10T12:44:55;100718.47;;;35.03;26.53
3082;BME280;1551;51.046;7.010;2023-06-10T12:47:45;100718.16;;;35.37;27.43
3082;BME280;1551;51.046;7.010;2023-06-10T12:50:35;100714.97;;;35.72;26.57
3082;BME280;1551;51.046;7.010;2023-06-10T12:53:26;100717.09;;;35.15;25.80
3082;BME280;1551;51.046;7.010;2023-06-10T12:56:18;100717.06;;;34.44;27.54
3082;BME280;1551;51.046;7.010;2023-06-10T12:59:07;100711.28;;;34.17;27.25
3082;BME280;1551;51.046;7.010;2023-06-10T13:01:56;100716.09;;;34.05;27.48
3082;BME280;1551;51.046;7.010;2023-06-10T13:04:46;100712.38;;;33.74;28.01
3082;BME280;1551;51.046;7.010;2023-06-10T13:07:36;100717.00;;;33.56;27.48
3082;BME280;1551;51.046;7.010;2023-06-10T13:10:25;100707.66;;;33.36;27.23
3082;BME280;1551;51.046;7.010;2023-06-10T13:13:14;100707.47;;;33.29;27.26
3082;BME280;1551;51.046;7.010;2023-06-10T13:16:03;100705.00;;;33.44;27.33
3082;BME280;1551;51.046;7.010;2023-06-10T13:18:53;100714.25;;;34.54;26.30
3082;BME280;1551;51.046;7.010;2023-06-10T13:21:42;100699.19;;;35.40;24.20
3082;BME280;1551;51.046;7.010;2023-06-10T13:24:31;100704.19;;;36.11;23.10
3082;BME280;1551;51.046;7.010;2023-06-10T13:27:20;100696.88;;;36.28;22.39
3082;BME280;1551;51.046;7.010;2023-06-10T13:30:09;100690.41;;;36.60;23.29
3082;BME280;1551;51.046;7.010;2023-06-10T13:32:59;100692.63;;;36.85;22.40
3082;BME280;1551;51.046;7.010;2023-06-10T13:35:49;100702.44;;;36.41;22.49
3082;BME280;1551;51.046;7.010;2023-06-10T13:38:38;100687.09;;;36.06;22.38
3082;BME280;1551;51.046;7.010;2023-06-10T13:41:27;100684.56;;;36.27;22.59
3082;BME280;1551;51.046;7.010;2023-06-10T13:44:17;100694.69;;;36.31;22.69
3082;BME280;1551;51.046;7.010;2023-06-10T13:47:06;100692.44;;;35.52;23.19
3082;BME280;1551;51.046;7.010;2023-06-10T13:49:55;100690.84;;;34.96;23.45
3082;BME280;1551;51.046;7.010;2023-06-10T13:52:44;100692.06;;;34.86;23.67
3082;BME280;1551;51.046;7.010;2023-06-10T13:55:33;100696.47;;;34.63;23.46
3082;BME280;1551;51.046;7.010;2023-06-10T13:58:22;100690.81;;;34.58;23.40
3082;BME280;1551;51.046;7.010;2023-06-10T14:01:11;100695.97;;;34.43;23.43
3082;BME280;1551;51.046;7.010;2023-06-10T14:04:00;100688.97;;;34.42;23.25
3082;BME280;1551;51.046;7.010;2023-06-10T14:06:49;100684.41;;;34.91;22.73
3082;BME280;1551;51.046;7.010;2023-06-10T14:09:38;100683.38;;;34.92;22.42
3082;BME280;1551;51.046;7.010;2023-06-10T14:12:27;100676.38;;;35.07;23.33
3082;BME280;1551;51.046;7.010;2023-06-10T14:15:16;100690.00;;;35.12;23.05
3082;BME280;1551;51.046;7.010;2023-06-10T14:18:05;100683.63;;;35.21;23.04
3082;BME280;1551;51.046;7.010;2023-06-10T14:20:54;100683.66;;;35.52;22.61
3082;BME280;1551;51.046;7.010;2023-06-10T14:23:43;100678.88;;;35.39;22.72
3082;BME280;1551;51.046;7.010;2023-06-10T14:26:32;100672.88;;;35.37;22.88
3082;BME280;1551;51.046;7.010;2023-06-10T14:29:21;100683.09;;;35.26;22.30
3082;BME280;1551;51.046;7.010;2023-06-10T14:32:10;100678.69;;;35.10;22.26
3082;BME280;1551;51.046;7.010;2023-06-10T14:34:59;100679.94;;;35.22;23.08
3082;BME280;1551;51.046;7.010;2023-06-10T14:37:48;100678.41;;;35.05;22.56
3082;BME280;1551;51.046;7.010;2023-06-10T14:40:37;100682.03;;;34.96;22.37
3082;BME280;1551;51.046;7.010;2023-06-10T14:43:26;100677.75;;;34.87;22.90
3082;BME280;1551;51.046;7.010;2023-06-10T14:46:15;100675.84;;;34.65;22.66
3082;BME280;1551;51.046;7.010;2023-06-10T14:49:04;100673.22;;;34.48;22.85
3082;BME280;1551;51.046;7.010;2023-06-10T14:51:53;100675.34;;;34.45;23.27
3082;BME280;1551;51.046;7.010;2023-06-10T14:54:42;100668.38;;;34.60;23.63
3082;BME280;1551;51.046;7.010;2023-06-10T14:57:31;100673.53;;;34.45;23.91
3082;BME280;1551;51.046;7.010;2023-06-10T15:00:20;100673.22;;;34.40;23.29
3082;BME280;1551;51.046;7.010;2023-06-10T15:03:11;100658.31;;;34.15;23.64
3082;BME280;1551;51.046;7.010;2023-06-10T15:06:00;100661.81;;;34.08;23.65
3082;BME280;1551;51.046;7.010;2023-06-10T15:08:49;100655.00;;;34.05;23.79
3082;BME280;1551;51.046;7.010;2023-06-10T15:11:38;100660.13;;;34.15;23.69
3082;BME280;1551;51.046;7.010;2023-06-10T15:14:27;100646.69;;;33.92;24.40